WXM80 ListenWXM80 Stop

You find our weather info also at:

UK Metoffice

WeatherCloud

Weather Underground

Northeastern Weather Network

AWEKAS

Citizen Weather Observer Program (CWOP)

HAMweather, WeatherForYou, PWS Weather


Weather Underground History page Text

Daily Summary for November 16, 2016 Units:  English    Metric   Both
« Previous Day
Next Day »
Daily Weekly Monthly Yearly Custom
  High: Low: Average:
Temperature: 60.0 °F 44.9 °F 51.7 °F
Dew Point: 47.2 °F 40.5 °F 43.5 °F
Humidity: 94 % 50 % 75 %
Wind Speed: 8.3 mph 0.0 mph 2.6 mph
Wind Gust: 15.0 mph - -
Wind:- - WSW
Pressure: 29.85 in 29.69 in -
Precipitation: 0.00 in    
Historical Graphs
 
 
Tabular Data for November 16, 2016
Time Temperature Dew Point Pressure Wind Wind Speed Wind Gust Humidity Rainfall Rate (Hourly)
00:04 48.4 °F 46.8 °F 29.69 in WSW 3.0 mph 4.6 mph 94 % 0.00 in
00:10 48.5 °F 46.9 °F 29.69 in WNW 3.3 mph 8.0 mph 94 % 0.00 in
00:15 48.7 °F 47.1 °F 29.69 in WSW 1.8 mph 3.5 mph 94 % 0.00 in
00:20 48.7 °F 47.1 °F 29.69 in West 2.3 mph 5.8 mph 94 % 0.00 in
00:25 48.8 °F 47.2 °F 29.69 in NW 3.4 mph 6.9 mph 94 % 0.00 in
00:30 48.8 °F 47.2 °F 29.69 in WSW 4.0 mph 6.9 mph 94 % 0.00 in
00:35 48.9 °F 47.2 °F 29.69 in WNW 4.7 mph 12.0 mph 94 % 0.00 in
00:40 48.9 °F 47.0 °F 29.69 in West 3.0 mph 7.0 mph 93 % 0.00 in
00:45 48.9 °F 47.0 °F 29.69 in West 3.0 mph 10.0 mph 93 % 0.00 in
00:50 49.0 °F 47.0 °F 29.69 in West 6.0 mph 13.0 mph 93 % 0.00 in
00:55 49.0 °F 47.1 °F 29.69 in WSW 3.0 mph 10.0 mph 93 % 0.00 in
01:00 49.0 °F 47.1 °F 29.69 in WSW 5.1 mph 6.0 mph 93 % 0.00 in
01:05 49.0 °F 46.8 °F 29.69 in WSW 3.0 mph 10.0 mph 92 % 0.00 in
01:10 48.9 °F 47.0 °F 29.69 in WSW 2.0 mph 7.0 mph 93 % 0.00 in
01:15 48.9 °F 47.0 °F 29.69 in SW 0.4 mph 5.8 mph 93 % 0.00 in
01:20 48.8 °F 46.9 °F 29.69 in SW 3.0 mph 7.0 mph 93 % 0.00 in
01:25 48.7 °F 46.8 °F 29.69 in WSW 2.0 mph 9.0 mph 93 % 0.00 in
01:30 48.6 °F 46.7 °F 29.69 in WSW 3.2 mph 8.1 mph 93 % 0.00 in
01:35 48.6 °F 46.7 °F 29.69 in WSW 2.0 mph 6.0 mph 93 % 0.00 in
01:40 48.6 °F 46.7 °F 29.69 in WSW 2.4 mph 6.9 mph 93 % 0.00 in
01:45 48.5 °F 46.6 °F 29.69 in WSW 5.0 mph 6.0 mph 93 % 0.00 in
01:50 48.5 °F 46.6 °F 29.69 in SW 3.0 mph 6.0 mph 93 % 0.00 in
01:55 48.4 °F 46.5 °F 29.69 in SW 2.0 mph 7.0 mph 93 % 0.00 in
02:00 48.3 °F 46.4 °F 29.69 in WSW 1.3 mph 4.6 mph 93 % 0.00 in
02:05 48.3 °F 46.4 °F 29.69 in WSW 1.0 mph 5.0 mph 93 % 0.00 in
02:10 48.2 °F 46.3 °F 29.70 in WSW 2.0 mph 6.0 mph 93 % 0.00 in
02:15 48.1 °F 46.2 °F 29.70 in WSW 3.0 mph 5.8 mph 93 % 0.00 in
02:20 48.1 °F 46.2 °F 29.70 in WSW 2.0 mph 6.0 mph 93 % 0.00 in
02:25 48.1 °F 46.1 °F 29.70 in WSW 2.0 mph 6.0 mph 93 % 0.00 in
02:30 48.0 °F 46.1 °F 29.70 in West 1.4 mph 4.6 mph 93 % 0.00 in
02:35 48.0 °F 46.4 °F 29.70 in WSW 1.0 mph 5.0 mph 94 % 0.00 in
02:40 48.0 °F 46.4 °F 29.70 in SW 3.0 mph 6.0 mph 94 % 0.00 in
02:45 47.9 °F 46.0 °F 29.70 in West 3.7 mph 3.7 mph 93 % 0.00 in
02:50 48.0 °F 46.0 °F 29.70 in SW 2.0 mph 5.0 mph 93 % 0.00 in
02:55 48.0 °F 46.1 °F 29.70 in SW 3.0 mph 6.0 mph 93 % 0.00 in
03:00 48.0 °F 46.1 °F 29.70 in SSW 3.0 mph 4.6 mph 93 % 0.00 in
03:05 47.9 °F 46.0 °F 29.70 in SW 1.0 mph 6.0 mph 93 % 0.00 in
03:10 47.9 °F 46.0 °F 29.70 in SW 2.6 mph 4.6 mph 93 % 0.00 in
03:15 47.9 °F 46.0 °F 29.70 in WSW 2.9 mph 5.0 mph 93 % 0.00 in
03:20 47.9 °F 46.0 °F 29.70 in WSW 1.0 mph 7.0 mph 93 % 0.00 in
03:25 47.9 °F 46.0 °F 29.69 in WSW 3.0 mph 6.0 mph 93 % 0.00 in
03:30 47.9 °F 46.0 °F 29.69 in West 1.7 mph 4.0 mph 93 % 0.00 in
03:35 47.9 °F 46.0 °F 29.69 in WSW 3.0 mph 7.0 mph 93 % 0.00 in
03:40 47.9 °F 45.7 °F 29.70 in WSW 2.0 mph 8.0 mph 92 % 0.00 in
03:45 47.9 °F 45.7 °F 29.69 in WSW 5.0 mph 12.0 mph 92 % 0.00 in
03:50 47.9 °F 45.7 °F 29.70 in SW 5.6 mph 15.0 mph 92 % 0.00 in
03:55 47.9 °F 45.7 °F 29.70 in West 3.0 mph 10.0 mph 92 % 0.00 in
04:00 47.9 °F 45.4 °F 29.70 in West 3.7 mph 4.6 mph 91 % 0.00 in
04:05 47.9 °F 45.4 °F 29.70 in West 5.2 mph 10.4 mph 91 % 0.00 in
04:10 48.0 °F 45.5 °F 29.70 in WSW 2.0 mph 7.0 mph 91 % 0.00 in
04:15 48.0 °F 45.5 °F 29.70 in SW 2.2 mph 4.6 mph 91 % 0.00 in
04:20 48.0 °F 45.5 °F 29.70 in WSW 3.0 mph 7.0 mph 91 % 0.00 in
04:25 48.0 °F 45.5 °F 29.70 in WSW 2.0 mph 5.0 mph 91 % 0.00 in
04:30 48.1 °F 45.6 °F 29.70 in West 2.0 mph 5.0 mph 91 % 0.00 in
04:35 48.1 °F 45.6 °F 29.70 in WSW 2.0 mph 9.0 mph 91 % 0.00 in
04:40 48.1 °F 45.6 °F 29.70 in West 2.0 mph 9.0 mph 91 % 0.00 in
04:45 48.1 °F 45.6 °F 29.70 in WSW 3.7 mph 3.7 mph 91 % 0.00 in
04:50 48.1 °F 45.6 °F 29.70 in WSW 2.0 mph 5.0 mph 91 % 0.00 in
04:55 48.1 °F 45.3 °F 29.70 in West 2.0 mph 7.0 mph 90 % 0.00 in
05:00 48.1 °F 45.3 °F 29.70 in West 3.2 mph 5.8 mph 90 % 0.00 in
05:05 48.0 °F 45.2 °F 29.70 in WSW 3.0 mph 8.0 mph 90 % 0.00 in
05:10 48.0 °F 45.2 °F 29.70 in Calm   3.0 mph 90 % 0.00 in
05:15 47.9 °F 45.1 °F 29.70 in SW 1.0 mph 5.0 mph 90 % 0.00 in
05:20 47.8 °F 44.7 °F 29.70 in WSW 1.0 mph 5.0 mph 89 % 0.00 in
05:25 47.7 °F 44.6 °F 29.70 in WSW 1.0 mph 4.0 mph 89 % 0.00 in
05:30 47.5 °F 44.4 °F 29.70 in WSW 1.0 mph 3.0 mph 89 % 0.00 in
05:35 47.3 °F 44.2 °F 29.70 in WSW 1.0 mph 7.0 mph 89 % 0.00 in
05:40 47.2 °F 44.1 °F 29.70 in WSW 2.0 mph 5.0 mph 89 % 0.00 in
05:45 47.0 °F 44.2 °F 29.70 in WSW 2.0 mph 5.0 mph 90 % 0.00 in
05:50 46.8 °F 44.0 °F 29.70 in WSW 1.0 mph 4.0 mph 90 % 0.00 in
05:55 46.6 °F 43.8 °F 29.70 in WSW 2.8 mph 4.6 mph 90 % 0.00 in
06:00 46.4 °F 43.6 °F 29.70 in WSW 1.0 mph 2.3 mph 90 % 0.00 in
06:05 46.3 °F 43.5 °F 29.70 in SW 2.4 mph 3.5 mph 90 % 0.00 in
06:10 46.1 °F 43.3 °F 29.70 in SW 1.8 mph 3.5 mph 90 % 0.00 in
06:15 46.0 °F 43.5 °F 29.71 in SW 3.0 mph 5.8 mph 91 % 0.00 in
06:21 45.8 °F 43.3 °F 29.71 in West 1.6 mph 4.6 mph 91 % 0.00 in
06:26 45.7 °F 43.2 °F 29.71 in WSW 1.4 mph 3.5 mph 91 % 0.00 in
06:31 45.6 °F 43.1 °F 29.71 in SW 2.5 mph 3.5 mph 91 % 0.00 in
06:36 45.4 °F 42.9 °F 29.71 in WSW 1.6 mph 3.5 mph 91 % 0.00 in
06:41 45.3 °F 42.8 °F 29.71 in SW 1.8 mph 3.0 mph 91 % 0.00 in
06:46 45.2 °F 43.0 °F 29.72 in SW 0.3 mph 1.2 mph 92 % 0.00 in
06:51 45.2 °F 43.0 °F 29.72 in SW 1.5 mph 3.5 mph 92 % 0.00 in
06:56 45.1 °F 42.9 °F 29.72 in South 3.0 mph 5.8 mph 92 % 0.00 in
07:01 45.0 °F 42.8 °F 29.72 in WSW 1.7 mph 4.0 mph 92 % 0.00 in
07:06 44.9 °F 42.7 °F 29.72 in SW 2.1 mph 3.5 mph 92 % 0.00 in
07:12 44.9 °F 42.7 °F 29.72 in WSW 3.5 mph 6.0 mph 92 % 0.00 in
07:17 44.9 °F 42.7 °F 29.73 in SW 4.0 mph 6.9 mph 92 % 0.00 in
07:22 45.0 °F 42.8 °F 29.73 in SSW 3.9 mph 5.8 mph 92 % 0.00 in
07:27 45.0 °F 42.8 °F 29.73 in SSW 5.0 mph 6.0 mph 92 % 0.00 in
07:32 45.1 °F 42.9 °F 29.74 in SW 3.7 mph 6.9 mph 92 % 0.00 in
07:37 45.2 °F 42.7 °F 29.74 in WSW 6.0 mph 8.1 mph 91 % 0.00 in
07:42 45.3 °F 42.8 °F 29.74 in SW 5.3 mph 9.2 mph 91 % 0.00 in
07:47 45.4 °F 42.9 °F 29.74 in WSW 5.6 mph 11.5 mph 91 % 0.00 in
07:52 45.6 °F 43.1 °F 29.74 in WSW 4.8 mph 6.9 mph 91 % 0.00 in
08:03 46.0 °F 43.5 °F 29.75 in WSW 4.1 mph 8.0 mph 91 % 0.00 in
08:08 46.4 °F 43.6 °F 29.75 in SW 4.6 mph 9.2 mph 90 % 0.00 in
08:13 46.7 °F 43.9 °F 29.75 in SSW 3.2 mph 5.0 mph 90 % 0.00 in
08:18 46.9 °F 43.8 °F 29.75 in WSW 4.1 mph 8.1 mph 89 % 0.00 in
08:23 47.3 °F 43.9 °F 29.74 in SW 2.1 mph 9.2 mph 88 % 0.00 in
08:28 47.6 °F 44.2 °F 29.74 in West 4.4 mph 6.9 mph 88 % 0.00 in
08:33 48.0 °F 44.0 °F 29.74 in SSW 2.1 mph 4.6 mph 86 % 0.00 in
08:38 48.3 °F 44.3 °F 29.74 in SW 2.0 mph 4.6 mph 86 % 0.00 in
08:43 48.7 °F 44.4 °F 29.74 in West 3.8 mph 6.9 mph 85 % 0.00 in
08:49 49.2 °F 44.6 °F 29.74 in WSW 2.2 mph 3.5 mph 84 % 0.00 in
08:54 49.7 °F 44.7 °F 29.74 in SSW 4.7 mph 6.9 mph 83 % 0.00 in
08:59 50.1 °F 44.8 °F 29.74 in WNW 4.7 mph 8.1 mph 82 % 0.00 in
09:04 50.6 °F 44.7 °F 29.74 in SW 4.4 mph 10.4 mph 80 % 0.00 in
09:09 51.1 °F 44.8 °F 29.73 in WSW 4.1 mph 8.1 mph 79 % 0.00 in
09:14 51.5 °F 45.2 °F 29.73 in WSW 5.7 mph 9.2 mph 79 % 0.00 in
09:19 51.7 °F 44.7 °F 29.73 in West 5.2 mph 6.9 mph 77 % 0.00 in
09:24 52.0 °F 45.4 °F 29.73 in West 4.4 mph 6.9 mph 78 % 0.00 in
09:29 52.4 °F 45.4 °F 29.73 in WSW 2.9 mph 4.6 mph 77 % 0.00 in
09:34 52.8 °F 45.4 °F 29.73 in WSW 4.7 mph 8.1 mph 76 % 0.00 in
09:45 53.5 °F 45.4 °F 29.73 in SW 7.3 mph 12.7 mph 74 % 0.00 in
09:50 53.9 °F 45.1 °F 29.73 in WSW 4.3 mph 9.2 mph 72 % 0.00 in
09:55 54.1 °F 44.9 °F 29.73 in WSW 5.1 mph 9.2 mph 71 % 0.00 in
10:00 54.2 °F 44.6 °F 29.73 in WSW 3.4 mph 10.4 mph 70 % 0.00 in
10:05 54.4 °F 45.2 °F 29.73 in SSW 4.0 mph 6.9 mph 71 % 0.00 in
10:10 54.6 °F 44.6 °F 29.73 in WSW 8.0 mph 11.5 mph 69 % 0.00 in
10:15 54.8 °F 44.4 °F 29.73 in WSW 5.0 mph 12.0 mph 68 % 0.00 in
10:20 54.8 °F 44.8 °F 29.73 in SW 8.0 mph 12.0 mph 69 % 0.00 in
10:25 54.9 °F 44.5 °F 29.73 in WSW 6.0 mph 12.0 mph 68 % 0.00 in
10:30 54.9 °F 44.5 °F 29.72 in WSW 6.0 mph 13.0 mph 68 % 0.00 in
10:35 55.0 °F 44.7 °F 29.72 in WSW 7.0 mph 12.0 mph 68 % 0.00 in
10:40 55.1 °F 44.3 °F 29.72 in SW 5.0 mph 12.0 mph 67 % 0.00 in
10:45 55.2 °F 44.4 °F 29.72 in WSW 5.0 mph 10.0 mph 67 % 0.00 in
10:50 55.1 °F 44.3 °F 29.72 in WSW 3.0 mph 13.0 mph 67 % 0.00 in
10:55 55.1 °F 43.5 °F 29.72 in WSW 8.0 mph 13.0 mph 65 % 0.00 in
11:00 55.0 °F 44.2 °F 29.72 in WSW 3.1 mph 12.7 mph 67 % 0.00 in
11:05 54.9 °F 43.7 °F 29.72 in WSW 7.3 mph 11.5 mph 66 % 0.00 in
11:10 54.9 °F 44.1 °F 29.72 in WSW 4.7 mph 8.1 mph 67 % 0.00 in
11:15 54.8 °F 43.3 °F 29.71 in SSW 8.3 mph 11.5 mph 65 % 0.00 in
11:20 54.7 °F 43.6 °F 29.71 in West 5.8 mph 9.2 mph 66 % 0.00 in
11:26 54.8 °F 43.7 °F 29.71 in WSW 3.2 mph 8.1 mph 66 % 0.00 in
11:31 54.9 °F 44.1 °F 29.71 in SW 5.9 mph 11.5 mph 67 % 0.00 in
11:41 55.1 °F 43.5 °F 29.71 in SSW 6.0 mph 7.0 mph 65 % 0.00 in
11:46 55.2 °F 43.6 °F 29.71 in West 6.2 mph 9.2 mph 65 % 0.00 in
11:51 55.3 °F 43.7 °F 29.71 in West 7.2 mph 11.5 mph 65 % 0.00 in
11:56 55.5 °F 43.9 °F 29.70 in SW 3.0 mph 11.5 mph 65 % 0.00 in
12:01 55.7 °F 43.7 °F 29.70 in WSW 6.6 mph 11.5 mph 64 % 0.00 in
12:06 55.9 °F 43.9 °F 29.71 in WSW 3.3 mph 9.0 mph 64 % 0.00 in
12:11 56.0 °F 43.6 °F 29.71 in WSW 6.7 mph 10.4 mph 63 % 0.00 in
12:22 56.4 °F 43.1 °F 29.70 in West 4.7 mph 6.9 mph 61 % 0.00 in
12:27 56.6 °F 42.9 °F 29.71 in WSW 6.2 mph 11.5 mph 60 % 0.00 in
12:32 56.8 °F 43.5 °F 29.71 in WSW 4.6 mph 8.1 mph 61 % 0.00 in
12:37 56.9 °F 43.2 °F 29.71 in West 4.8 mph 9.2 mph 60 % 0.00 in
12:42 57.0 °F 43.2 °F 29.71 in WSW 5.7 mph 15.0 mph 60 % 0.00 in
12:47 57.1 °F 43.3 °F 29.71 in SW 5.3 mph 8.1 mph 60 % 0.00 in
12:52 57.3 °F 43.1 °F 29.71 in WSW 2.8 mph 4.6 mph 59 % 0.00 in
12:57 57.6 °F 42.9 °F 29.71 in WSW 6.7 mph 11.0 mph 58 % 0.00 in
13:02 57.8 °F 43.1 °F 29.71 in West 2.5 mph 5.0 mph 58 % 0.00 in
13:08 58.1 °F 43.4 °F 29.71 in West 3.3 mph 5.8 mph 58 % 0.00 in
13:13 58.5 °F 42.4 °F 29.71 in West 5.1 mph 9.2 mph 55 % 0.00 in
13:18 58.8 °F 43.1 °F 29.71 in West 4.3 mph 6.0 mph 56 % 0.00 in
13:23 59.1 °F 42.9 °F 29.71 in SW 5.7 mph 11.5 mph 55 % 0.00 in
13:28 59.4 °F 42.7 °F 29.71 in SW 3.0 mph 8.1 mph 54 % 0.00 in
13:33 59.6 °F 42.4 °F 29.71 in WSW 4.3 mph 7.0 mph 53 % 0.00 in
13:38 59.8 °F 42.1 °F 29.72 in SSW 4.5 mph 10.4 mph 52 % 0.00 in
13:43 59.9 °F 42.2 °F 29.71 in West 2.8 mph 4.6 mph 52 % 0.00 in
13:48 60.0 °F 42.3 °F 29.71 in SW 6.1 mph 8.1 mph 52 % 0.00 in
13:53 60.0 °F 41.8 °F 29.71 in West 3.7 mph 6.0 mph 51 % 0.00 in
13:59 60.0 °F 41.3 °F 29.71 in West 6.6 mph 9.2 mph 50 % 0.00 in
14:04 59.9 °F 41.7 °F 29.71 in WSW 7.0 mph 9.2 mph 51 % 0.00 in
14:09 59.8 °F 41.6 °F 29.71 in WSW 3.9 mph 9.2 mph 51 % 0.00 in
14:14 59.7 °F 41.5 °F 29.71 in WSW 3.6 mph 8.1 mph 51 % 0.00 in
14:19 59.6 °F 41.9 °F 29.71 in WSW 5.3 mph 8.1 mph 52 % 0.00 in
14:24 59.5 °F 41.3 °F 29.71 in WSW 3.0 mph 9.2 mph 51 % 0.00 in
14:29 59.5 °F 41.9 °F 29.71 in NW 2.0 mph 8.1 mph 52 % 0.00 in
14:34 59.4 °F 41.3 °F 29.71 in WNW 4.1 mph 9.2 mph 51 % 0.00 in
14:39 59.4 °F 41.3 °F 29.71 in West 3.9 mph 6.9 mph 51 % 0.00 in
14:44 59.4 °F 41.3 °F 29.71 in WSW 4.2 mph 8.1 mph 51 % 0.00 in
14:50 59.4 °F 41.8 °F 29.71 in SW 1.1 mph 5.0 mph 52 % 0.00 in
14:55 59.3 °F 41.2 °F 29.71 in WSW 3.9 mph 5.8 mph 51 % 0.00 in
15:00 59.2 °F 41.1 °F 29.71 in WSW 5.3 mph 8.1 mph 51 % 0.00 in
15:05 59.2 °F 41.6 °F 29.72 in West 4.0 mph 6.9 mph 52 % 0.00 in
15:10 59.1 °F 41.5 °F 29.72 in WSW 2.7 mph 4.6 mph 52 % 0.00 in
15:15 59.1 °F 41.5 °F 29.72 in WSW 2.0 mph 5.0 mph 52 % 0.00 in
15:20 59.0 °F 41.9 °F 29.72 in WSW 3.0 mph 7.0 mph 53 % 0.00 in
15:25 58.9 °F 41.8 °F 29.72 in WNW 3.0 mph 5.0 mph 53 % 0.00 in
15:30 58.9 °F 41.8 °F 29.72 in West 1.0 mph 7.0 mph 53 % 0.00 in
15:35 58.8 °F 41.7 °F 29.72 in WSW 2.0 mph 5.0 mph 53 % 0.00 in
15:40 58.7 °F 41.6 °F 29.72 in SW 3.0 mph 7.0 mph 53 % 0.00 in
15:45 58.6 °F 41.5 °F 29.72 in WSW 2.0 mph 4.0 mph 53 % 0.00 in
15:50 58.6 °F 41.5 °F 29.72 in Calm   4.0 mph 53 % 0.00 in
15:55 58.5 °F 41.9 °F 29.72 in Calm     54 % 0.00 in
16:00 58.4 °F 41.8 °F 29.72 in WSW 0.7 mph 3.5 mph 54 % 0.00 in
16:05 58.3 °F 41.7 °F 29.72 in Calm     54 % 0.00 in
16:10 58.1 °F 42.0 °F 29.72 in WSW 1.3 mph 3.5 mph 55 % 0.00 in
16:15 57.9 °F 42.3 °F 29.73 in Calm   3.5 mph 56 % 0.00 in
16:20 57.7 °F 42.6 °F 29.73 in Calm     57 % 0.00 in
16:25 57.5 °F 42.8 °F 29.73 in Calm     58 % 0.00 in
16:31 57.2 °F 42.5 °F 29.73 in Calm     58 % 0.00 in
16:36 56.8 °F 42.2 °F 29.73 in Calm     58 % 0.00 in
16:41 56.4 °F 42.2 °F 29.73 in Calm     59 % 0.00 in
16:46 56.0 °F 42.3 °F 29.73 in Calm     60 % 0.00 in
16:51 55.4 °F 42.6 °F 29.73 in Calm     62 % 0.00 in
16:56 55.0 °F 42.2 °F 29.74 in Calm     62 % 0.00 in
17:01 54.7 °F 41.5 °F 29.74 in Calm     61 % 0.00 in
17:06 54.3 °F 42.0 °F 29.74 in Calm     63 % 0.00 in
17:11 54.0 °F 41.7 °F 29.74 in WSW 0.3 mph 1.2 mph 63 % 0.00 in
17:16 53.6 °F 41.7 °F 29.74 in Calm   1.0 mph 64 % 0.00 in
17:22 53.3 °F 41.4 °F 29.74 in WSW 0.2 mph 1.2 mph 64 % 0.00 in
17:27 53.0 °F 41.5 °F 29.74 in Calm   1.2 mph 65 % 0.00 in
17:32 52.6 °F 41.9 °F 29.75 in Calm   1.2 mph 67 % 0.00 in
17:37 52.3 °F 41.7 °F 29.75 in WSW 0.1 mph 1.2 mph 67 % 0.00 in
17:42 51.9 °F 41.7 °F 29.75 in WSW 0.1 mph 1.2 mph 68 % 0.00 in
17:47 51.7 °F 41.5 °F 29.75 in WSW 0.1 mph 1.2 mph 68 % 0.00 in
17:52 51.4 °F 41.2 °F 29.75 in WSW 0.2 mph 2.3 mph 68 % 0.00 in
17:57 51.1 °F 40.9 °F 29.75 in Calm   1.2 mph 68 % 0.00 in
18:02 50.9 °F 41.1 °F 29.75 in WSW 0.2 mph 2.3 mph 69 % 0.00 in
18:07 50.7 °F 40.5 °F 29.75 in WSW 0.1 mph 1.2 mph 68 % 0.00 in
18:13 50.6 °F 41.2 °F 29.75 in WSW 0.1 mph 1.2 mph 70 % 0.00 in
18:18 50.5 °F 41.1 °F 29.75 in WSW 0.2 mph 1.2 mph 70 % 0.00 in
18:23 50.4 °F 41.3 °F 29.75 in SW 0.2 mph 1.2 mph 71 % 0.00 in
18:28 50.3 °F 41.6 °F 29.75 in Calm     72 % 0.00 in
18:33 50.3 °F 42.0 °F 29.75 in West 2.4 mph 3.0 mph 73 % 0.00 in
18:38 50.3 °F 42.3 °F 29.76 in SW 1.1 mph 2.3 mph 74 % 0.00 in
18:43 50.4 °F 42.4 °F 29.76 in SW 0.3 mph 1.2 mph 74 % 0.00 in
18:48 50.4 °F 42.4 °F 29.76 in SW 0.5 mph 2.3 mph 74 % 0.00 in
18:54 50.5 °F 42.5 °F 29.76 in SW 1.0 mph 2.3 mph 74 % 0.00 in
19:04 50.4 °F 42.4 °F 29.76 in SW 1.6 mph 2.3 mph 74 % 0.00 in
19:09 50.3 °F 42.3 °F 29.76 in SSW 0.2 mph 1.2 mph 74 % 0.00 in
19:14 50.2 °F 42.2 °F 29.77 in SSW 0.7 mph 2.3 mph 74 % 0.00 in
19:19 50.1 °F 42.5 °F 29.76 in SSW 1.2 mph 2.3 mph 75 % 0.00 in
19:29 49.7 °F 41.7 °F 29.77 in West 2.6 mph 5.8 mph 74 % 0.00 in
19:34 49.7 °F 41.7 °F 29.77 in West 2.3 mph 3.5 mph 74 % 0.00 in
19:39 49.8 °F 41.8 °F 29.78 in SW 1.4 mph 3.5 mph 74 % 0.00 in
19:44 49.9 °F 41.9 °F 29.78 in WSW 1.2 mph 2.3 mph 74 % 0.00 in
19:49 50.0 °F 42.0 °F 29.78 in West 1.1 mph 2.3 mph 74 % 0.00 in
19:55 50.1 °F 42.1 °F 29.78 in West 0.7 mph 2.3 mph 74 % 0.00 in
20:00 50.2 °F 41.9 °F 29.78 in West 0.3 mph 2.3 mph 73 % 0.00 in
20:10 50.4 °F 42.1 °F 29.79 in West 2.0 mph 5.8 mph 73 % 0.00 in
20:15 50.5 °F 41.8 °F 29.79 in WNW 1.0 mph 2.0 mph 72 % 0.00 in
20:20 50.7 °F 42.0 °F 29.79 in WNW 1.2 mph 5.0 mph 72 % 0.00 in
20:25 50.8 °F 42.1 °F 29.79 in West 2.0 mph 5.0 mph 72 % 0.00 in
20:30 51.0 °F 42.3 °F 29.80 in West 2.8 mph 4.0 mph 72 % 0.00 in
20:35 51.1 °F 42.4 °F 29.80 in WNW 1.0 mph 6.0 mph 72 % 0.00 in
20:40 51.3 °F 42.6 °F 29.80 in WNW 3.0 mph 8.0 mph 72 % 0.00 in
20:45 51.4 °F 42.7 °F 29.81 in WNW 1.5 mph 6.9 mph 72 % 0.00 in
20:50 51.5 °F 42.4 °F 29.81 in NW 3.0 mph 7.0 mph 71 % 0.00 in
20:55 51.8 °F 42.7 °F 29.81 in NW 2.0 mph 8.0 mph 71 % 0.00 in
21:00 52.0 °F 42.5 °F 29.81 in WNW 2.0 mph 5.8 mph 70 % 0.00 in
21:05 52.1 °F 42.6 °F 29.82 in NW 5.0 mph 8.0 mph 70 % 0.00 in
21:10 52.2 °F 42.4 °F 29.82 in NW 3.0 mph 9.0 mph 69 % 0.00 in
21:15 52.3 °F 42.0 °F 29.82 in NW 1.5 mph 6.9 mph 68 % 0.00 in
21:25 52.5 °F 42.2 °F 29.82 in NW 2.0 mph 8.0 mph 68 % 0.00 in
21:30 52.5 °F 42.6 °F 29.82 in Calm   4.6 mph 69 % 0.00 in
21:35 52.5 °F 42.3 °F 29.82 in WNW 2.0 mph 5.0 mph 68 % 0.00 in
21:40 52.5 °F 42.6 °F 29.83 in Calm   4.0 mph 69 % 0.00 in
21:45 52.5 °F 42.2 °F 29.83 in NW 1.1 mph 3.5 mph 68 % 0.00 in
21:50 52.4 °F 42.1 °F 29.83 in NW 2.0 mph 4.0 mph 68 % 0.00 in
21:55 52.3 °F 41.7 °F 29.83 in NW 3.0 mph 9.0 mph 67 % 0.00 in
22:00 52.3 °F 42.0 °F 29.83 in WNW 1.9 mph 6.0 mph 68 % 0.00 in
22:05 52.2 °F 41.6 °F 29.83 in NW 1.0 mph 7.0 mph 67 % 0.00 in
22:10 52.2 °F 42.0 °F 29.83 in NW 1.0 mph 5.0 mph 68 % 0.00 in
22:15 52.2 °F 41.6 °F 29.83 in WNW 1.3 mph 4.6 mph 67 % 0.00 in
22:20 52.1 °F 41.5 °F 29.83 in WNW 1.0 mph 3.0 mph 67 % 0.00 in
22:25 52.0 °F 41.8 °F 29.83 in NW 1.0 mph 4.0 mph 68 % 0.00 in
22:30 51.8 °F 41.6 °F 29.83 in Calm   3.0 mph 68 % 0.00 in
22:35 51.7 °F 41.9 °F 29.83 in Calm   5.0 mph 69 % 0.00 in
22:40 51.7 °F 41.8 °F 29.83 in NW 1.0 mph 5.0 mph 69 % 0.00 in
22:45 51.5 °F 41.7 °F 29.83 in NW 1.0 mph 6.0 mph 69 % 0.00 in
22:50 51.5 °F 41.7 °F 29.83 in Calm   5.0 mph 69 % 0.00 in
22:55 51.4 °F 41.9 °F 29.84 in Calm   6.0 mph 70 % 0.00 in
23:00 51.4 °F 41.9 °F 29.83 in North 0.4 mph 3.5 mph 70 % 0.00 in
23:05 51.3 °F 41.8 °F 29.83 in North 0.9 mph 3.0 mph 70 % 0.00 in
23:10 51.3 °F 41.8 °F 29.83 in North 1.2 mph 3.5 mph 70 % 0.00 in
23:15 51.2 °F 42.1 °F 29.84 in North 0.6 mph 2.0 mph 71 % 0.00 in
23:20 51.1 °F 42.0 °F 29.84 in North 0.1 mph 1.2 mph 71 % 0.00 in
23:25 51.0 °F 41.9 °F 29.84 in Calm     71 % 0.00 in
23:31 50.9 °F 41.8 °F 29.84 in Calm     71 % 0.00 in
23:36 50.8 °F 41.7 °F 29.84 in Calm   1.2 mph 71 % 0.00 in
23:41 50.7 °F 41.6 °F 29.84 in NW 2.3 mph 2.3 mph 71 % 0.00 in
23:46 50.5 °F 41.8 °F 29.84 in WNW 1.0 mph 2.3 mph 72 % 0.00 in
23:51 50.4 °F 42.1 °F 29.85 in West 0.7 mph 4.6 mph 73 % 0.00 in
23:56 50.3 °F 42.0 °F 29.85 in West 0.3 mph 2.3 mph 73 % 0.00 in
Crab Meadow Weather
Compliments of Weather Underground - 2.75 mb

Script developed by  Jim McMurry - jmcmurry@mwt.net Adapted for the template by  Wim van der Kuil - Leuven-Template.eu

Astronomy: One day on Uranus is 18 hours